createdAt,value
2023-06-06T00:10:59.036Z,10.90
2023-06-06T00:13:26.006Z,10.90
2023-06-06T00:16:02.962Z,10.90
2023-06-06T00:18:56.979Z,10.80
2023-06-06T00:24:00.013Z,10.80
2023-06-06T00:26:31.895Z,10.70
2023-06-06T00:29:15.765Z,10.70
2023-06-06T00:50:22.592Z,10.60
2023-06-06T00:52:50.322Z,10.50
2023-06-06T00:55:19.951Z,10.50
2023-06-06T00:57:49.205Z,10.50
2023-06-06T01:03:26.464Z,10.50
2023-06-06T01:05:53.746Z,10.40
2023-06-06T01:08:26.285Z,10.40
2023-06-06T01:19:21.102Z,10.40
2023-06-06T01:22:04.676Z,10.40
2023-06-06T01:24:39.885Z,10.40
2023-06-06T01:27:14.548Z,10.40
2023-06-06T01:29:56.080Z,10.40
2023-06-06T01:33:14.614Z,10.30
2023-06-06T01:36:24.372Z,10.30
2023-06-06T01:39:29.227Z,10.30
2023-06-06T01:41:58.578Z,10.30
2023-06-06T01:44:27.174Z,10.30
2023-06-06T01:47:03.804Z,10.20
2023-06-06T01:49:31.034Z,10.20
2023-06-06T01:52:11.909Z,10.20
2023-06-06T02:00:03.590Z,10.20
2023-06-06T02:02:30.312Z,10.20
2023-06-06T02:04:57.189Z,10.20
2023-06-06T02:07:23.872Z,10.10
2023-06-06T02:09:50.575Z,10.10
2023-06-06T02:37:03.068Z,10.00
2023-06-06T02:57:48.462Z,9.90
2023-06-06T03:00:20.536Z,9.90
2023-06-06T03:02:47.330Z,9.90
2023-06-06T03:05:20.579Z,9.90
2023-06-06T03:07:47.559Z,9.80
2023-06-06T03:10:29.647Z,9.90
2023-06-06T03:13:19.341Z,9.80
2023-06-06T03:15:57.924Z,9.80
2023-06-06T03:18:27.079Z,9.80
2023-06-06T03:20:57.055Z,9.80
2023-06-06T03:23:27.103Z,9.80
2023-06-06T03:26:44.516Z,9.80
2023-06-06T03:30:11.828Z,9.80
2023-06-06T03:33:31.387Z,9.80
2023-06-06T03:36:23.702Z,9.80
2023-06-06T03:38:56.480Z,9.80
2023-06-06T03:41:23.219Z,9.90
2023-06-06T03:43:55.601Z,9.90
2023-06-06T03:46:25.222Z,9.90
2023-06-06T03:48:58.732Z,9.90
2023-06-06T03:51:37.105Z,9.90
2023-06-06T03:54:04.554Z,10.00
2023-06-06T04:23:31.672Z,10.40
2023-06-06T04:26:07.595Z,10.40
2023-06-06T04:28:34.530Z,10.50
2023-06-06T04:31:07.097Z,10.50
2023-06-06T04:33:52.641Z,10.50
2023-06-06T04:36:37.127Z,10.60
2023-06-06T04:39:07.181Z,10.60
2023-06-06T04:41:54.432Z,10.60
2023-06-06T04:44:22.140Z,10.70
2023-06-06T04:47:05.755Z,10.70
2023-06-06T04:49:33.206Z,10.80
2023-06-06T04:52:11.417Z,10.80
2023-06-06T04:54:41.724Z,10.90
2023-06-06T04:57:22.936Z,10.90
2023-06-06T04:59:50.118Z,10.90
2023-06-06T05:13:25.329Z,11.30
2023-06-06T05:15:52.177Z,11.30
2023-06-06T05:18:18.913Z,11.40
2023-06-06T05:20:54.689Z,11.50
2023-06-06T05:26:01.946Z,11.60
2023-06-06T05:28:29.053Z,11.70
2023-06-06T05:31:11.146Z,11.80
2023-06-06T05:33:47.837Z,11.80
2023-06-06T05:36:40.095Z,11.80
2023-06-06T05:39:17.205Z,11.90
2023-06-06T05:42:11.053Z,12.00
2023-06-06T05:44:50.124Z,12.10
2023-06-06T05:47:17.535Z,12.20
2023-06-06T05:49:44.413Z,12.20
2023-06-06T05:52:26.746Z,12.10
2023-06-06T05:55:03.631Z,12.10
2023-06-06T05:57:42.732Z,12.10
2023-06-06T06:00:11.546Z,12.20
2023-06-06T06:02:50.411Z,12.40
2023-06-06T06:05:31.676Z,12.50
2023-06-06T06:08:00.296Z,12.40
2023-06-06T06:10:37.000Z,12.40
2023-06-06T06:13:10.259Z,12.40
2023-06-06T06:15:48.044Z,12.50
2023-06-06T06:18:33.176Z,12.90
2023-06-06T06:21:12.582Z,13.10
2023-06-06T06:23:40.152Z,13.20
2023-06-06T06:26:25.869Z,13.40
2023-06-06T06:28:52.887Z,13.50
2023-06-06T06:31:29.188Z,13.70
2023-06-06T06:33:56.650Z,13.90
2023-06-06T06:36:35.537Z,13.90
2023-06-06T06:39:02.809Z,14.10
2023-06-06T06:41:41.546Z,14.30
2023-06-06T06:44:09.047Z,14.50
2023-06-06T06:46:43.638Z,14.40
2023-06-06T06:49:35.448Z,14.60
2023-06-06T06:52:17.697Z,14.80
2023-06-06T06:54:47.090Z,15.30
2023-06-06T06:57:14.165Z,16.00
2023-06-06T06:59:50.336Z,16.70
2023-06-06T07:02:18.766Z,16.90
2023-06-06T07:04:45.486Z,16.80
2023-06-06T07:07:37.466Z,16.50
2023-06-06T07:10:04.458Z,16.30
2023-06-06T07:12:46.864Z,16.10
2023-06-06T07:15:13.620Z,15.70
2023-06-06T07:17:40.395Z,15.60
2023-06-06T07:20:27.641Z,15.60
2023-06-06T07:23:10.267Z,15.80
2023-06-06T07:25:37.129Z,15.60
2023-06-06T07:28:10.395Z,15.60
2023-06-06T07:30:37.414Z,15.50
2023-06-06T07:33:04.248Z,15.70
2023-06-06T07:35:46.359Z,16.00
2023-06-06T07:38:13.078Z,15.80
2023-06-06T07:40:40.008Z,15.70
2023-06-06T07:43:20.693Z,15.80
2023-06-06T07:46:08.184Z,15.70
2023-06-06T07:48:40.579Z,15.70
2023-06-06T07:51:07.613Z,15.70
2023-06-06T07:53:36.577Z,15.80
2023-06-06T07:56:04.192Z,15.80
2023-06-06T07:58:48.028Z,15.70
2023-06-06T08:01:23.266Z,15.90
2023-06-06T08:03:59.522Z,16.10
2023-06-06T08:06:26.261Z,16.10
2023-06-06T08:09:06.867Z,16.10
2023-06-06T08:11:46.158Z,16.10
2023-06-06T08:14:38.739Z,16.10
2023-06-06T08:17:13.695Z,16.20
2023-06-06T08:19:41.171Z,16.20
2023-06-06T08:22:08.576Z,16.20
2023-06-06T08:24:38.436Z,16.40
2023-06-06T08:27:09.538Z,16.40
2023-06-06T08:29:36.412Z,16.60
2023-06-06T08:32:10.517Z,16.80
2023-06-06T08:34:37.366Z,16.90
2023-06-06T08:37:33.741Z,16.90
2023-06-06T08:40:15.939Z,16.80
2023-06-06T08:42:45.705Z,16.90
2023-06-06T08:47:55.558Z,17.30
2023-06-06T08:53:09.424Z,17.10
2023-06-06T08:58:51.740Z,17.40
2023-06-06T09:04:11.468Z,17.50
2023-06-06T09:06:38.388Z,17.40
2023-06-06T09:09:21.595Z,17.30
2023-06-06T09:11:49.582Z,17.60
2023-06-06T09:14:30.352Z,17.70
2023-06-06T09:16:57.834Z,17.90
2023-06-06T09:19:25.545Z,17.60
2023-06-06T09:22:09.034Z,17.50
2023-06-06T09:24:44.407Z,17.50
2023-06-06T09:27:32.402Z,17.60
2023-06-06T09:30:20.197Z,18.00
2023-06-06T09:33:04.310Z,17.90
2023-06-06T09:38:33.173Z,17.90
2023-06-06T09:43:40.519Z,17.90
2023-06-06T09:46:07.664Z,18.00
2023-06-06T09:48:37.295Z,17.90
2023-06-06T09:51:04.994Z,18.10
2023-06-06T09:53:42.704Z,18.30
2023-06-06T09:56:11.468Z,18.50
2023-06-06T09:58:45.168Z,18.50
2023-06-06T10:01:13.352Z,18.40
2023-06-06T10:04:13.741Z,18.30
2023-06-06T10:09:28.200Z,18.00
2023-06-06T10:11:58.425Z,17.90
2023-06-06T10:14:34.487Z,17.90
2023-06-06T10:17:02.431Z,18.20
2023-06-06T10:22:35.578Z,18.50
2023-06-06T10:25:04.477Z,18.50
2023-06-06T10:28:12.897Z,18.30
2023-06-06T10:30:45.129Z,18.50
2023-06-06T10:33:37.755Z,18.60
2023-06-06T10:36:06.403Z,18.70
2023-06-06T10:45:42.912Z,18.90
2023-06-06T10:48:09.772Z,19.00
2023-06-06T10:53:21.981Z,18.90
2023-06-06T10:55:56.608Z,18.60
2023-06-06T11:01:20.798Z,18.70
2023-06-06T11:03:48.023Z,18.80
2023-06-06T11:06:26.399Z,18.80
2023-06-06T11:15:15.864Z,19.30
2023-06-06T11:17:49.048Z,19.20
2023-06-06T11:20:23.931Z,19.20
2023-06-06T11:23:12.264Z,18.90
2023-06-06T11:25:39.417Z,18.70
2023-06-06T11:31:08.688Z,19.30
2023-06-06T11:33:56.601Z,19.40
2023-06-06T11:36:32.844Z,19.50
2023-06-06T11:39:19.539Z,19.40
2023-06-06T11:44:48.059Z,19.80
2023-06-06T11:47:40.349Z,19.70
2023-06-06T11:50:28.053Z,19.50
2023-06-06T11:53:08.427Z,19.50
2023-06-06T11:56:01.197Z,19.60
2023-06-06T12:02:13.775Z,19.40
2023-06-06T12:07:49.486Z,19.50
2023-06-06T12:11:14.491Z,19.60
2023-06-06T12:13:47.608Z,19.90
2023-06-06T12:16:32.480Z,19.80
2023-06-06T12:19:19.560Z,20.20
2023-06-06T12:24:49.788Z,19.80
2023-06-06T12:27:45.182Z,19.70
2023-06-06T12:30:15.439Z,19.90
2023-06-06T12:32:44.082Z,20.10
2023-06-06T12:35:21.332Z,20.30
2023-06-06T12:37:47.962Z,20.40
2023-06-06T12:40:19.494Z,20.50
2023-06-06T12:42:53.518Z,20.30
2023-06-06T12:45:38.071Z,20.30
2023-06-06T12:48:12.594Z,20.30
2023-06-06T12:53:50.558Z,20.30
2023-06-06T12:58:52.792Z,20.10
2023-06-06T13:01:24.335Z,20.40
2023-06-06T13:04:00.671Z,20.40
2023-06-06T13:06:30.476Z,20.30
2023-06-06T13:08:57.485Z,20.40
2023-06-06T13:11:26.912Z,20.30
2023-06-06T13:14:00.031Z,20.20
2023-06-06T13:19:25.820Z,20.00
2023-06-06T13:22:37.096Z,20.10
2023-06-06T13:25:13.512Z,20.00
2023-06-06T13:27:42.808Z,20.00
2023-06-06T13:30:10.248Z,20.00
2023-06-06T13:32:55.076Z,19.90
2023-06-06T13:35:27.716Z,19.80
2023-06-06T13:38:12.201Z,19.80
2023-06-06T13:40:42.076Z,19.80
2023-06-06T13:43:17.917Z,19.80
2023-06-06T13:45:59.742Z,19.70
2023-06-06T13:48:26.989Z,19.80
2023-06-06T13:51:03.413Z,19.90
2023-06-06T13:53:39.732Z,19.80
2023-06-06T13:56:17.839Z,19.90
2023-06-06T13:58:53.622Z,19.90
2023-06-06T14:04:21.262Z,20.00
2023-06-06T14:06:55.623Z,20.10
2023-06-06T14:09:29.033Z,20.30
2023-06-06T14:12:05.148Z,20.30
2023-06-06T14:14:36.961Z,20.30
2023-06-06T14:17:04.000Z,20.30
2023-06-06T14:20:09.234Z,20.10
2023-06-06T14:22:54.742Z,20.20
2023-06-06T14:25:21.598Z,20.20
2023-06-06T14:28:01.556Z,20.30
2023-06-06T14:30:46.345Z,20.40
2023-06-06T14:33:13.505Z,20.10
2023-06-06T14:57:24.390Z,19.80
2023-06-06T15:00:04.019Z,19.90
2023-06-06T15:02:43.347Z,19.90
2023-06-06T15:05:13.467Z,20.00
2023-06-06T15:07:55.897Z,19.80
2023-06-06T15:10:35.062Z,19.80
2023-06-06T15:13:03.567Z,19.80
2023-06-06T15:15:45.691Z,19.60
2023-06-06T15:18:12.893Z,19.70
2023-06-06T15:20:49.454Z,19.80
2023-06-06T15:35:47.446Z,20.00
2023-06-06T15:38:24.813Z,19.80
2023-06-06T15:43:27.230Z,19.70
2023-06-06T16:20:54.318Z,19.40
2023-06-06T16:23:43.584Z,19.40
2023-06-06T16:26:14.994Z,19.50
2023-06-06T16:28:42.065Z,19.30
2023-06-06T16:31:18.070Z,19.00
2023-06-06T16:33:47.419Z,19.10
2023-06-06T16:36:29.460Z,18.90
2023-06-06T16:39:07.754Z,18.80
2023-06-06T16:41:37.227Z,18.80
2023-06-06T16:44:10.155Z,18.90
2023-06-06T16:47:09.788Z,19.00
2023-06-06T16:49:56.862Z,18.80
2023-06-06T16:52:43.907Z,18.80
2023-06-06T16:58:47.495Z,18.60
2023-06-06T17:39:57.471Z,18.10
2023-06-06T19:59:54.966Z,15.50
2023-06-06T21:23:09.217Z,14.00
2023-06-06T21:25:42.105Z,14.00
2023-06-06T21:28:18.297Z,13.90
2023-06-06T21:31:07.516Z,13.90
2023-06-06T21:33:42.587Z,13.90
2023-06-06T21:36:21.410Z,13.80
2023-06-06T21:38:51.234Z,13.80
2023-06-06T21:42:07.335Z,13.80
2023-06-06T21:44:45.674Z,13.70
2023-06-06T21:47:12.602Z,13.70
2023-06-06T21:49:45.440Z,13.70
2023-06-06T21:52:29.425Z,13.70
2023-06-06T21:54:58.323Z,13.60
2023-06-06T21:57:25.183Z,13.60
2023-06-06T21:59:57.271Z,13.60
2023-06-06T22:02:26.754Z,13.50
2023-06-06T22:05:22.794Z,13.50
2023-06-06T22:07:52.071Z,13.50
2023-06-06T22:10:27.919Z,13.50
2023-06-06T22:15:59.217Z,13.50
2023-06-06T22:18:38.319Z,13.40
2023-06-06T22:21:05.452Z,13.40
2023-06-06T22:23:52.100Z,13.40
2023-06-06T22:26:30.330Z,13.30
2023-06-06T22:29:09.277Z,13.30
2023-06-06T22:31:52.731Z,13.20
2023-06-06T22:34:29.790Z,13.20
2023-06-06T22:37:10.849Z,13.20
2023-06-06T22:39:46.817Z,13.10
2023-06-06T22:42:29.288Z,13.10
2023-06-06T22:45:05.782Z,13.10
2023-06-06T22:47:45.121Z,13.00
2023-06-06T22:50:23.559Z,13.00
2023-06-06T22:52:58.286Z,12.90
2023-06-06T22:55:28.733Z,12.90
2023-06-06T23:03:16.791Z,12.80
2023-06-06T23:05:46.476Z,12.80
2023-06-06T23:08:13.285Z,12.80
2023-06-06T23:10:46.894Z,12.70
2023-06-06T23:13:13.776Z,12.70
2023-06-06T23:15:40.554Z,12.60
2023-06-06T23:18:52.116Z,12.60
2023-06-06T23:27:06.031Z,12.50
2023-06-06T23:29:48.383Z,12.40
2023-06-06T23:32:15.136Z,12.30
2023-06-06T23:34:45.073Z,12.30
2023-06-06T23:40:16.340Z,12.20
2023-06-06T23:46:00.062Z,12.10
2023-06-06T23:48:35.336Z,12.10
2023-06-06T23:51:02.405Z,12.00
2023-06-06T23:53:33.843Z,12.00
2023-06-06T23:56:11.146Z,11.90
2023-06-06T23:58:52.742Z,11.90
